Weather at Baraboo Wisconsin Dells Regional Airport

Public forecast

Using degrees Fahrenheit for public forecast. Weather courtesy of forecast.io.

Current aviation weather report (METAR) for Baraboo Wisconsin Dells Regional Airport

2024/05/28 22:15 (retrieved 21 minutes ago)

KDLL 282215Z AUTO 32009KT 10SM -DZ SCT030 BKN036 OVC046 15/12 A3005 RMK AO2 LTG DSNT W T01460123

Closest aviation forecast (TAF) to Baraboo Wisconsin Dells Regional Airport

Closest forecast is Dane County Regional Truax Field, 29.8 nm (55.1 km) SE.

2024/05/28 21:06 Ammendment (retrieved 1 hour ago)

TAF AMD KMSN 282103Z 2821/2918 31008KT P6SM -SHRA BKN060 FM290200 36006KT P6SM SCT060